Terminal Aerodrome Forecast
Issued by NWS

Home | Current Version | Previous Version | Text Only | Print | Product List | Glossary On
Versions: 1 2 3 4 5 6 7 8 9 10 11 12 13
795
FTUS41 KAKQ 221749 RRA
TAFPHF
TAF
KPHF 221749Z 2218/2318 33012G18KT P6SM SCT050
     FM222300 36008KT P6SM SKC
     FM230600 36005KT P6SM SKC
     FM231500 35008KT P6SM SKC=

USA.gov is the U.S. government's official web portal to all federal, state and local government web resources and services.